createdAt,value
2018-06-08T00:00:43.921Z,21.60
2018-06-08T00:03:12.458Z,21.60
2018-06-08T00:05:40.966Z,21.60
2018-06-08T00:08:09.510Z,21.60
2018-06-08T00:10:38.069Z,21.50
2018-06-08T00:13:06.570Z,21.50
2018-06-08T00:15:35.119Z,21.50
2018-06-08T00:18:03.619Z,21.50
2018-06-08T00:20:32.169Z,21.40
2018-06-08T00:23:01.024Z,21.40
2018-06-08T00:25:29.480Z,21.30
2018-06-08T00:27:57.994Z,21.30
2018-06-08T00:30:26.454Z,21.30
2018-06-08T00:32:54.927Z,21.30
2018-06-08T00:35:23.370Z,21.20
2018-06-08T00:37:51.869Z,21.20
2018-06-08T00:40:20.842Z,21.20
2018-06-08T00:42:49.317Z,21.10
2018-06-08T00:45:17.872Z,21.10
2018-06-08T00:47:46.499Z,21.00
2018-06-08T00:50:14.947Z,21.00
2018-06-08T00:52:43.425Z,20.90
2018-06-08T00:55:11.862Z,20.90
2018-06-08T00:57:40.357Z,20.90
2018-06-08T01:00:08.806Z,20.90
2018-06-08T01:02:37.308Z,20.90
2018-06-08T01:07:34.179Z,20.80
2018-06-08T01:10:02.641Z,20.80
2018-06-08T01:12:31.149Z,20.70
2018-06-08T01:14:59.622Z,20.60
2018-06-08T01:17:28.119Z,20.50
2018-06-08T01:19:56.597Z,20.50
2018-06-08T01:22:25.098Z,20.40
2018-06-08T01:24:53.568Z,20.30
2018-06-08T01:27:22.210Z,20.20
2018-06-08T01:29:50.681Z,20.10
2018-06-08T01:32:19.357Z,20.10
2018-06-08T01:34:48.697Z,20.10
2018-06-08T01:37:17.268Z,20.10
2018-06-08T01:39:45.754Z,20.20
2018-06-08T01:42:14.205Z,20.10
2018-06-08T01:44:42.674Z,20.20
2018-06-08T01:47:11.106Z,20.20
2018-06-08T01:49:39.581Z,20.10
2018-06-08T01:52:08.025Z,20.10
2018-06-08T01:54:36.507Z,19.90
2018-06-08T01:57:04.990Z,19.80
2018-06-08T01:59:35.570Z,19.80
2018-06-08T02:02:04.338Z,19.80
2018-06-08T02:04:32.836Z,19.70
2018-06-08T02:07:01.342Z,19.70
2018-06-08T02:09:29.826Z,19.60
2018-06-08T02:11:58.286Z,19.60
2018-06-08T02:14:26.770Z,19.60
2018-06-08T02:16:55.345Z,19.60
2018-06-08T02:19:23.825Z,19.70
2018-06-08T02:21:52.389Z,19.60
2018-06-08T02:24:20.881Z,19.60
2018-06-08T02:29:17.618Z,19.70
2018-06-08T02:31:46.073Z,19.70
2018-06-08T02:34:14.627Z,19.60
2018-06-08T02:36:43.071Z,19.60
2018-06-08T02:39:11.559Z,19.60
2018-06-08T02:41:40.017Z,19.60
2018-06-08T02:44:08.499Z,19.50
2018-06-08T02:46:37.086Z,19.40
2018-06-08T02:49:05.625Z,19.40
2018-06-08T02:51:34.281Z,19.30
2018-06-08T02:54:02.989Z,19.30
2018-06-08T02:56:31.432Z,19.30
2018-06-08T02:58:59.914Z,19.30
2018-06-08T03:01:28.425Z,19.30
2018-06-08T03:03:56.949Z,19.30
2018-06-08T03:06:25.460Z,19.30
2018-06-08T03:08:53.942Z,19.30
2018-06-08T03:11:22.400Z,19.30
2018-06-08T03:13:50.925Z,19.20
2018-06-08T03:16:19.402Z,19.30
2018-06-08T03:18:47.917Z,19.20
2018-06-08T03:21:16.409Z,19.40
2018-06-08T03:23:45.154Z,19.50
2018-06-08T03:26:13.599Z,19.50
2018-06-08T03:28:42.030Z,19.60
2018-06-08T03:31:10.504Z,19.70
2018-06-08T03:33:38.951Z,19.80
2018-06-08T03:36:07.443Z,19.90
2018-06-08T03:38:35.886Z,20.00
2018-06-08T03:41:04.388Z,20.10
2018-06-08T03:43:32.845Z,20.20
2018-06-08T03:46:01.326Z,20.40
2018-06-08T03:48:29.780Z,20.40
2018-06-08T03:50:58.289Z,20.50
2018-06-08T03:53:26.734Z,20.70
2018-06-08T03:55:55.457Z,20.80
2018-06-08T03:58:23.874Z,20.80
2018-06-08T04:00:52.360Z,21.00
2018-06-08T04:03:20.795Z,21.10
2018-06-08T04:05:49.337Z,21.20
2018-06-08T04:08:17.781Z,21.30
2018-06-08T04:10:46.418Z,21.30
2018-06-08T04:13:14.881Z,21.30
2018-06-08T04:15:43.373Z,21.40
2018-06-08T04:18:14.126Z,21.40
2018-06-08T04:20:42.654Z,21.40
2018-06-08T04:23:11.110Z,21.50
2018-06-08T04:25:39.778Z,21.60
2018-06-08T04:28:08.202Z,21.70
2018-06-08T04:30:36.683Z,21.80
2018-06-08T04:35:33.393Z,22.10
2018-06-08T04:38:01.866Z,22.20
2018-06-08T04:40:30.363Z,22.20
2018-06-08T04:42:58.842Z,22.40
2018-06-08T04:45:27.361Z,22.50
2018-06-08T04:47:55.987Z,22.60
2018-06-08T04:50:24.472Z,22.70
2018-06-08T04:52:52.925Z,22.80
2018-06-08T04:55:21.410Z,22.90
2018-06-08T04:57:49.896Z,23.00
2018-06-08T05:00:18.534Z,23.10
2018-06-08T05:02:46.995Z,23.10
2018-06-08T05:05:15.554Z,23.30
2018-06-08T05:07:44.011Z,23.30
2018-06-08T05:10:12.509Z,23.40
2018-06-08T05:12:40.953Z,23.50
2018-06-08T05:15:09.443Z,23.60
2018-06-08T05:17:37.878Z,23.60
2018-06-08T05:20:06.369Z,23.70
2018-06-08T05:22:34.806Z,23.80
2018-06-08T05:25:03.307Z,23.80
2018-06-08T05:27:32.393Z,23.90
2018-06-08T05:30:00.910Z,24.00
2018-06-08T05:32:29.354Z,24.10
2018-06-08T05:34:57.811Z,24.10
2018-06-08T05:37:26.283Z,24.20
2018-06-08T05:39:54.730Z,24.30
2018-06-08T05:42:23.223Z,24.40
2018-06-08T05:44:51.670Z,24.40
2018-06-08T05:47:20.129Z,24.50
2018-06-08T05:49:48.606Z,24.60
2018-06-08T05:52:17.127Z,24.60
2018-06-08T05:54:45.586Z,24.70
2018-06-08T05:57:14.078Z,24.80
2018-06-08T05:59:42.659Z,24.80
2018-06-08T06:02:11.166Z,24.90
2018-06-08T06:04:39.639Z,25.00
2018-06-08T06:07:08.237Z,25.00
2018-06-08T06:09:36.688Z,25.10
2018-06-08T06:12:05.135Z,25.10
2018-06-08T06:14:33.648Z,25.10
2018-06-08T06:17:02.124Z,25.20
2018-06-08T06:19:30.625Z,25.20
2018-06-08T06:21:59.091Z,25.30
2018-06-08T06:24:27.573Z,25.30
2018-06-08T06:26:56.040Z,25.40
2018-06-08T06:29:24.565Z,25.50
2018-06-08T06:31:53.032Z,25.50
2018-06-08T06:34:21.535Z,25.60
2018-06-08T06:36:50.013Z,25.70
2018-06-08T06:39:18.514Z,25.80
2018-06-08T06:41:46.983Z,25.90
2018-06-08T06:44:15.465Z,25.90
2018-06-08T06:46:43.947Z,26.00
2018-06-08T06:49:12.385Z,26.00
2018-06-08T06:51:41.038Z,26.10
2018-06-08T06:54:09.593Z,26.20
2018-06-08T06:56:38.081Z,26.30
2018-06-08T06:59:06.616Z,26.40
2018-06-08T07:01:35.231Z,26.50
2018-06-08T07:04:03.750Z,26.50
2018-06-08T07:06:32.282Z,26.60
2018-06-08T07:09:00.778Z,26.60
2018-06-08T07:11:29.326Z,26.70
2018-06-08T07:13:57.792Z,26.80
2018-06-08T07:16:26.274Z,26.90
2018-06-08T07:18:54.783Z,26.90
2018-06-08T07:21:23.277Z,26.90
2018-06-08T07:23:51.734Z,27.00
2018-06-08T07:26:20.437Z,27.10
2018-06-08T07:28:48.898Z,27.20
2018-06-08T07:31:17.419Z,27.30
2018-06-08T07:33:45.882Z,27.30
2018-06-08T07:36:14.411Z,27.40
2018-06-08T07:38:42.895Z,27.50
2018-06-08T07:41:11.349Z,27.40
2018-06-08T07:43:39.830Z,27.10
2018-06-08T07:46:08.295Z,26.90
2018-06-08T07:48:36.817Z,26.80
2018-06-08T07:53:33.517Z,26.70
2018-06-08T07:56:01.968Z,26.80
2018-06-08T07:58:30.475Z,26.70
2018-06-08T08:00:59.055Z,27.20
2018-06-08T08:03:27.713Z,27.50
2018-06-08T08:05:57.429Z,27.70
2018-06-08T08:08:25.916Z,27.90
2018-06-08T08:10:54.394Z,28.00
2018-06-08T08:13:22.915Z,28.10
2018-06-08T08:15:51.746Z,28.20
2018-06-08T08:18:20.270Z,27.80
2018-06-08T08:20:48.779Z,27.90
2018-06-08T08:23:17.241Z,27.80
2018-06-08T08:25:45.820Z,27.50
2018-06-08T08:28:14.232Z,27.60
2018-06-08T08:30:42.749Z,27.90
2018-06-08T08:33:11.235Z,28.10
2018-06-08T08:35:39.788Z,28.20
2018-06-08T08:38:08.282Z,28.40
2018-06-08T08:40:36.774Z,28.70
2018-06-08T08:43:05.291Z,29.00
2018-06-08T08:45:33.790Z,29.10
2018-06-08T08:48:02.301Z,29.20
2018-06-08T08:50:30.800Z,29.30
2018-06-08T08:52:59.266Z,29.40
2018-06-08T08:55:27.710Z,29.50
2018-06-08T08:57:56.273Z,29.50
2018-06-08T09:00:24.804Z,29.50
2018-06-08T09:02:53.301Z,29.60
2018-06-08T09:05:21.790Z,29.70
2018-06-08T09:07:50.284Z,29.70
2018-06-08T09:10:18.734Z,29.80
2018-06-08T09:12:47.258Z,29.80
2018-06-08T09:15:15.742Z,29.90
2018-06-08T09:17:44.279Z,29.90
2018-06-08T09:20:12.782Z,29.90
2018-06-08T09:22:41.348Z,29.90
2018-06-08T09:25:09.813Z,30.00
2018-06-08T09:27:38.328Z,29.90
2018-06-08T09:30:06.905Z,29.80
2018-06-08T09:32:35.398Z,29.80
2018-06-08T09:35:03.925Z,29.80
2018-06-08T09:37:32.458Z,29.80
2018-06-08T09:40:01.051Z,29.90
2018-06-08T09:42:29.520Z,29.90
2018-06-08T09:44:58.057Z,30.00
2018-06-08T09:47:26.651Z,30.00
2018-06-08T09:49:55.238Z,29.70
2018-06-08T09:52:23.826Z,29.80
2018-06-08T09:54:52.384Z,29.90
2018-06-08T09:57:20.930Z,30.10
2018-06-08T09:59:50.937Z,30.10
2018-06-08T10:02:19.434Z,29.90
2018-06-08T10:04:47.926Z,30.10
2018-06-08T10:07:16.440Z,29.90
2018-06-08T10:09:44.978Z,29.90
2018-06-08T10:12:16.899Z,30.00
2018-06-08T10:14:45.455Z,29.80
2018-06-08T10:17:14.256Z,29.90
2018-06-08T10:19:42.733Z,29.70
2018-06-08T10:22:12.055Z,29.90
2018-06-08T10:24:42.231Z,29.60
2018-06-08T10:27:11.859Z,29.50
2018-06-08T10:29:40.332Z,29.50
2018-06-08T10:32:08.844Z,29.40
2018-06-08T10:34:37.292Z,29.40
2018-06-08T10:37:05.861Z,29.30
2018-06-08T10:39:34.400Z,29.30
2018-06-08T10:42:02.967Z,29.60
2018-06-08T10:44:32.437Z,29.80
2018-06-08T10:47:01.079Z,29.80
2018-06-08T10:49:30.430Z,29.90
2018-06-08T10:51:59.729Z,30.00
2018-06-08T10:54:28.439Z,30.00
2018-06-08T10:56:57.582Z,30.10
2018-06-08T10:59:26.074Z,30.10
2018-06-08T11:01:54.641Z,30.00
2018-06-08T11:04:23.094Z,29.80
2018-06-08T11:06:51.685Z,29.70
2018-06-08T11:09:20.267Z,29.90
2018-06-08T11:11:48.741Z,30.00
2018-06-08T11:14:17.228Z,30.00
2018-06-08T11:16:45.722Z,30.10
2018-06-08T11:19:14.346Z,30.30
2018-06-08T11:21:42.881Z,30.30
2018-06-08T11:24:11.408Z,30.20
2018-06-08T11:26:40.020Z,30.30
2018-06-08T11:29:08.475Z,30.40
2018-06-08T11:31:37.695Z,30.50
2018-06-08T11:34:06.499Z,30.50
2018-06-08T11:36:35.893Z,30.50
2018-06-08T11:39:07.435Z,30.50
2018-06-08T11:41:36.086Z,30.40
2018-06-08T11:44:04.749Z,30.30
2018-06-08T11:46:33.256Z,30.20
2018-06-08T11:49:01.773Z,30.20
2018-06-08T11:51:30.228Z,30.30
2018-06-08T11:53:58.678Z,30.30
2018-06-08T11:56:27.166Z,30.40
2018-06-08T11:58:55.672Z,30.40
2018-06-08T12:01:24.218Z,30.50
2018-06-08T12:03:52.675Z,30.50
2018-06-08T12:06:21.187Z,30.50
2018-06-08T12:08:49.638Z,30.60
2018-06-08T12:11:18.152Z,30.60
2018-06-08T12:13:46.607Z,30.80
2018-06-08T12:16:15.140Z,30.80
2018-06-08T12:18:43.663Z,30.80
2018-06-08T12:21:12.183Z,30.90
2018-06-08T12:26:08.855Z,31.00
2018-06-08T12:28:37.289Z,31.00
2018-06-08T12:31:05.818Z,31.00
2018-06-08T12:33:34.303Z,31.00
2018-06-08T12:36:02.827Z,31.00
2018-06-08T12:38:31.279Z,31.00
2018-06-08T12:40:59.823Z,31.00
2018-06-08T12:45:56.376Z,31.80
2018-06-08T12:48:24.870Z,32.60
2018-06-08T12:50:53.535Z,33.40
2018-06-08T12:53:22.832Z,34.00
2018-06-08T12:55:51.279Z,34.70
2018-06-08T12:58:25.873Z,35.30
2018-06-08T13:00:54.550Z,35.90
2018-06-08T13:03:23.088Z,36.40
2018-06-08T13:05:51.539Z,36.90
2018-06-08T13:08:20.035Z,37.50
2018-06-08T13:10:48.526Z,38.10
2018-06-08T13:13:17.058Z,38.60
2018-06-08T13:15:45.524Z,38.90
2018-06-08T13:18:14.101Z,39.10
2018-06-08T13:20:42.598Z,39.50
2018-06-08T13:23:11.176Z,40.00
2018-06-08T13:25:39.715Z,40.50
2018-06-08T13:28:08.226Z,40.80
2018-06-08T13:33:04.959Z,41.30
2018-06-08T13:35:33.527Z,41.40
2018-06-08T13:38:02.012Z,41.30
2018-06-08T13:40:30.607Z,40.70
2018-06-08T13:42:59.079Z,40.30
2018-06-08T13:45:27.620Z,40.20
2018-06-08T13:47:56.135Z,40.30
2018-06-08T13:50:24.698Z,40.40
2018-06-08T13:52:53.317Z,40.50
2018-06-08T13:55:21.965Z,40.50
2018-06-08T13:57:50.443Z,40.80
2018-06-08T14:00:19.009Z,41.30
2018-06-08T14:02:47.457Z,41.70
2018-06-08T14:05:16.000Z,41.00
2018-06-08T14:07:44.483Z,40.30
2018-06-08T14:10:13.084Z,39.20
2018-06-08T14:12:41.587Z,38.30
2018-06-08T14:15:10.146Z,37.50
2018-06-08T14:17:38.648Z,38.10
2018-06-08T14:20:07.094Z,39.00
2018-06-08T14:22:35.583Z,39.80
2018-06-08T14:25:04.110Z,40.70
2018-06-08T14:27:32.649Z,41.40
2018-06-08T14:30:01.154Z,41.90
2018-06-08T14:32:29.619Z,42.70
2018-06-08T14:34:58.573Z,43.40
2018-06-08T14:37:27.070Z,44.00
2018-06-08T14:39:55.554Z,44.30
2018-06-08T14:42:24.648Z,44.70
2018-06-08T14:44:53.120Z,45.00
2018-06-08T14:47:21.651Z,45.40
2018-06-08T14:49:50.125Z,45.70
2018-06-08T14:52:18.634Z,46.10
2018-06-08T14:54:47.087Z,46.10
2018-06-08T14:57:15.656Z,46.30
2018-06-08T14:59:44.137Z,46.20
2018-06-08T15:02:12.749Z,44.40
2018-06-08T15:04:42.504Z,42.80
2018-06-08T15:07:11.045Z,41.30
2018-06-08T15:09:40.566Z,42.00
2018-06-08T15:12:09.113Z,42.70
2018-06-08T15:14:37.594Z,43.30
2018-06-08T15:17:06.829Z,43.80
2018-06-08T15:19:35.429Z,44.10
2018-06-08T15:22:03.950Z,44.30
2018-06-08T15:24:32.504Z,44.40
2018-06-08T15:27:01.171Z,44.60
2018-06-08T15:29:29.756Z,44.10
2018-06-08T15:34:26.457Z,40.80
2018-06-08T15:36:55.571Z,39.70
2018-06-08T15:39:24.147Z,38.60
2018-06-08T15:41:52.817Z,37.80
2018-06-08T15:44:21.414Z,37.20
2018-06-08T15:46:49.920Z,37.50
2018-06-08T15:49:18.398Z,38.60
2018-06-08T15:51:47.324Z,38.90
2018-06-08T15:54:15.786Z,39.50
2018-06-08T15:56:45.426Z,40.00
2018-06-08T15:59:13.903Z,40.00
2018-06-08T16:01:42.437Z,39.50
2018-06-08T16:04:10.912Z,39.00
2018-06-08T16:06:39.402Z,39.90
2018-06-08T16:09:07.982Z,39.90
2018-06-08T16:11:36.482Z,41.00
2018-06-08T16:14:05.128Z,41.20
2018-06-08T16:16:33.649Z,41.30
2018-06-08T16:19:02.178Z,40.20
2018-06-08T16:21:31.171Z,40.10
2018-06-08T16:23:59.698Z,39.00
2018-06-08T16:26:28.834Z,38.20
2018-06-08T16:28:57.359Z,37.50
2018-06-08T16:31:25.876Z,36.90
2018-06-08T16:33:54.354Z,36.40
2018-06-08T16:36:23.030Z,35.90
2018-06-08T16:38:51.526Z,35.40
2018-06-08T16:41:20.254Z,35.00
2018-06-08T16:43:48.721Z,34.60
2018-06-08T16:46:17.204Z,34.20
2018-06-08T16:48:48.267Z,34.00
2018-06-08T16:51:16.812Z,33.80
2018-06-08T16:53:45.299Z,33.70
2018-06-08T16:56:13.801Z,33.50
2018-06-08T16:58:42.303Z,33.40
2018-06-08T17:01:10.775Z,33.20
2018-06-08T17:03:39.282Z,33.10
2018-06-08T17:06:07.835Z,32.90
2018-06-08T17:08:36.379Z,32.80
2018-06-08T17:13:33.104Z,32.70
2018-06-08T17:16:01.625Z,32.60
2018-06-08T17:18:30.187Z,32.60
2018-06-08T17:20:58.671Z,32.50
2018-06-08T17:23:27.288Z,32.40
2018-06-08T17:25:55.787Z,32.30
2018-06-08T17:28:24.322Z,32.30
2018-06-08T17:30:52.774Z,32.20
2018-06-08T17:33:21.374Z,32.00
2018-06-08T17:35:50.071Z,31.90
2018-06-08T17:40:46.724Z,31.60
2018-06-08T17:43:15.182Z,31.50
2018-06-08T17:45:43.710Z,31.40
2018-06-08T17:48:12.185Z,31.30
2018-06-08T17:50:40.718Z,31.20
2018-06-08T17:53:12.193Z,31.10
2018-06-08T17:55:40.714Z,31.10
2018-06-08T17:58:09.304Z,31.00
2018-06-08T18:00:37.827Z,30.90
2018-06-08T18:03:06.276Z,30.80
2018-06-08T18:05:34.799Z,30.70
2018-06-08T18:08:03.352Z,30.60
2018-06-08T18:10:31.984Z,30.60
2018-06-08T18:13:00.460Z,30.50
2018-06-08T18:15:29.092Z,30.50
2018-06-08T18:17:57.742Z,30.40
2018-06-08T18:20:27.168Z,30.40
2018-06-08T18:22:55.646Z,30.30
2018-06-08T18:25:24.143Z,30.30
2018-06-08T18:27:52.688Z,30.30
2018-06-08T18:30:21.223Z,30.20
2018-06-08T18:32:50.056Z,30.10
2018-06-08T18:35:18.539Z,30.00
2018-06-08T18:37:47.127Z,29.90
2018-06-08T18:40:15.586Z,29.80
2018-06-08T18:42:44.125Z,29.80
2018-06-08T18:45:12.592Z,29.70
2018-06-08T18:47:41.108Z,29.60
2018-06-08T18:50:09.631Z,29.50
2018-06-08T18:52:38.187Z,29.40
2018-06-08T18:55:07.000Z,29.20
2018-06-08T18:57:35.570Z,29.10
2018-06-08T19:00:05.137Z,29.10
2018-06-08T19:02:33.610Z,29.00
2018-06-08T19:05:02.177Z,28.90
2018-06-08T19:07:31.674Z,28.80
2018-06-08T19:10:00.247Z,28.80
2018-06-08T19:12:29.378Z,28.80
2018-06-08T19:14:57.868Z,28.70
2018-06-08T19:17:26.392Z,28.60
2018-06-08T19:19:55.023Z,28.60
2018-06-08T19:22:23.529Z,28.50
2018-06-08T19:24:52.041Z,28.50
2018-06-08T19:27:20.521Z,28.40
2018-06-08T19:29:49.060Z,28.40
2018-06-08T19:32:17.606Z,28.40
2018-06-08T19:34:46.089Z,28.30
2018-06-08T19:37:14.577Z,28.30
2018-06-08T19:39:43.065Z,28.20
2018-06-08T19:42:11.565Z,28.10
2018-06-08T19:44:40.113Z,28.10
2018-06-08T19:47:08.799Z,28.10
2018-06-08T19:52:05.516Z,28.00
2018-06-08T19:54:34.057Z,27.90
2018-06-08T19:57:02.542Z,27.80
2018-06-08T19:59:31.123Z,27.70
2018-06-08T20:01:59.607Z,27.70
2018-06-08T20:04:28.222Z,27.60
2018-06-08T20:06:56.816Z,27.50
2018-06-08T20:09:25.399Z,27.50
2018-06-08T20:11:53.871Z,27.50
2018-06-08T20:14:22.487Z,27.40
2018-06-08T20:16:50.974Z,27.30
2018-06-08T20:19:19.658Z,27.30
2018-06-08T20:21:48.218Z,27.30
2018-06-08T20:24:16.741Z,27.20
2018-06-08T20:26:45.406Z,27.20
2018-06-08T20:29:14.088Z,27.20
2018-06-08T20:31:43.456Z,27.20
2018-06-08T20:34:12.003Z,27.10
2018-06-08T20:36:40.884Z,27.10
2018-06-08T20:39:09.349Z,27.00
2018-06-08T20:41:37.876Z,27.00
2018-06-08T20:44:06.370Z,27.00
2018-06-08T20:46:34.968Z,27.00
2018-06-08T20:49:03.588Z,26.90
2018-06-08T20:51:32.167Z,26.90
2018-06-08T20:54:00.726Z,26.80
2018-06-08T20:56:29.209Z,26.80
2018-06-08T20:58:57.805Z,26.70
2018-06-08T21:01:26.369Z,26.70
2018-06-08T21:03:54.982Z,26.60
2018-06-08T21:06:23.506Z,26.60
2018-06-08T21:08:52.051Z,26.60
2018-06-08T21:11:20.549Z,26.50
2018-06-08T21:13:49.147Z,26.40
2018-06-08T21:16:17.604Z,26.40
2018-06-08T21:18:47.233Z,26.40
2018-06-08T21:21:15.867Z,26.30
2018-06-08T21:23:44.488Z,26.20
2018-06-08T21:26:13.000Z,26.20
2018-06-08T21:28:41.513Z,26.20
2018-06-08T21:31:10.132Z,26.10
2018-06-08T21:33:38.854Z,26.10
2018-06-08T21:36:07.559Z,26.10
2018-06-08T21:38:36.057Z,26.10
2018-06-08T21:41:04.630Z,26.00
2018-06-08T21:43:33.206Z,25.90
2018-06-08T21:46:01.850Z,25.90
2018-06-08T21:48:31.573Z,25.80
2018-06-08T21:51:00.189Z,25.80
2018-06-08T21:53:28.778Z,25.80
2018-06-08T21:55:58.431Z,25.80
2018-06-08T21:58:26.954Z,25.80
2018-06-08T22:00:55.658Z,25.80
2018-06-08T22:03:27.050Z,25.80
2018-06-08T22:06:01.870Z,25.70
2018-06-08T22:08:30.431Z,25.70
2018-06-08T22:10:59.090Z,25.60
2018-06-08T22:13:28.103Z,25.60
2018-06-08T22:15:56.658Z,25.60
2018-06-08T22:18:25.255Z,25.50
2018-06-08T22:20:55.341Z,25.60
2018-06-08T22:23:24.016Z,25.70
2018-06-08T22:25:52.595Z,25.60
2018-06-08T22:28:21.886Z,25.60
2018-06-08T22:30:51.630Z,25.60
2018-06-08T22:33:20.226Z,25.50
2018-06-08T22:35:48.697Z,25.50
2018-06-08T22:38:17.285Z,25.50
2018-06-08T22:40:47.231Z,25.50
2018-06-08T22:43:15.746Z,25.50
2018-06-08T22:45:44.747Z,25.40
2018-06-08T22:48:13.661Z,25.40
2018-06-08T22:50:42.129Z,25.40
2018-06-08T22:53:10.838Z,25.40
2018-06-08T22:55:39.984Z,25.40
2018-06-08T22:58:08.468Z,25.30
2018-06-08T23:00:37.027Z,25.30
2018-06-08T23:03:05.732Z,25.30
2018-06-08T23:05:34.187Z,25.30
2018-06-08T23:08:02.633Z,25.30
2018-06-08T23:10:31.141Z,25.20
2018-06-08T23:12:59.640Z,25.10
2018-06-08T23:15:28.138Z,25.10
2018-06-08T23:17:56.646Z,25.10
2018-06-08T23:20:25.223Z,25.00
2018-06-08T23:22:53.752Z,25.00
2018-06-08T23:25:22.214Z,25.00
2018-06-08T23:27:50.903Z,25.00
2018-06-08T23:30:19.413Z,24.90
2018-06-08T23:32:47.858Z,24.90
2018-06-08T23:35:17.870Z,24.80
2018-06-08T23:37:46.991Z,24.70
2018-06-08T23:40:15.510Z,24.60
2018-06-08T23:42:44.656Z,24.60
2018-06-08T23:45:13.190Z,24.50
2018-06-08T23:47:41.669Z,24.40
2018-06-08T23:50:10.167Z,24.40
2018-06-08T23:52:38.645Z,24.20
2018-06-08T23:55:07.095Z,24.20
2018-06-08T23:57:35.593Z,24.10
